createdAt,value
2022-07-27T00:01:32.408Z,17.15
2022-07-27T00:04:02.255Z,17.53
2022-07-27T00:06:32.230Z,17.48
2022-07-27T00:09:02.141Z,17.21
2022-07-27T00:11:31.841Z,17.50
2022-07-27T00:14:04.223Z,17.12
2022-07-27T00:16:34.182Z,17.37
2022-07-27T00:19:04.035Z,17.39
2022-07-27T00:21:33.993Z,17.38
2022-07-27T00:24:07.719Z,17.34
2022-07-27T00:26:37.579Z,17.22
2022-07-27T00:29:10.613Z,16.95
2022-07-27T00:31:40.685Z,17.02
2022-07-27T00:34:10.590Z,17.05
2022-07-27T00:36:40.321Z,17.11
2022-07-27T00:39:10.327Z,17.17
2022-07-27T00:41:40.282Z,16.74
2022-07-27T00:44:12.737Z,17.00
2022-07-27T00:46:42.578Z,17.20
2022-07-27T00:49:12.773Z,17.22
2022-07-27T00:51:42.834Z,17.23
2022-07-27T00:54:12.743Z,16.89
2022-07-27T00:56:43.162Z,17.22
2022-07-27T00:59:16.901Z,17.22
2022-07-27T01:01:46.875Z,17.23
2022-07-27T01:04:16.699Z,16.90
2022-07-27T01:06:46.534Z,16.80
2022-07-27T01:09:28.862Z,17.11
2022-07-27T01:11:58.679Z,17.17
2022-07-27T01:14:31.008Z,17.20
2022-07-27T01:17:00.778Z,17.10
2022-07-27T01:19:30.547Z,17.12
2022-07-27T01:22:02.902Z,17.09
2022-07-27T01:24:32.685Z,16.93
2022-07-27T01:27:03.173Z,16.50
2022-07-27T01:29:33.529Z,16.92
2022-07-27T01:32:04.629Z,16.93
2022-07-27T01:34:35.403Z,16.95
2022-07-27T01:37:08.187Z,16.99
2022-07-27T01:39:37.969Z,16.95
2022-07-27T01:42:07.923Z,16.71
2022-07-27T01:44:37.626Z,16.67
2022-07-27T01:47:14.507Z,16.60
2022-07-27T01:49:44.592Z,16.84
2022-07-27T01:52:16.805Z,16.81
2022-07-27T01:54:46.536Z,16.88
2022-07-27T01:57:16.247Z,16.86
2022-07-27T01:59:46.081Z,16.92
2022-07-27T02:02:16.406Z,16.87
2022-07-27T02:04:46.117Z,16.81
2022-07-27T02:07:19.211Z,16.85
2022-07-27T02:09:49.016Z,16.58
2022-07-27T02:12:31.154Z,16.80
2022-07-27T02:15:05.589Z,16.78
2022-07-27T02:17:36.691Z,16.74
2022-07-27T02:20:08.082Z,16.70
2022-07-27T02:22:40.522Z,16.77
2022-07-27T02:25:11.713Z,16.57
2022-07-27T02:27:41.888Z,16.71
2022-07-27T02:30:13.953Z,16.55
2022-07-27T02:32:44.655Z,16.57
2022-07-27T02:35:19.423Z,16.34
2022-07-27T02:37:52.677Z,16.51
2022-07-27T02:40:22.482Z,16.39
2022-07-27T02:42:52.198Z,16.34
2022-07-27T02:45:22.060Z,16.45
2022-07-27T02:47:51.879Z,16.45
2022-07-27T02:50:22.406Z,16.53
2022-07-27T02:52:54.777Z,16.42
2022-07-27T02:55:24.486Z,16.64
2022-07-27T02:57:54.204Z,16.53
2022-07-27T03:00:24.033Z,16.65
2022-07-27T03:02:54.016Z,16.60
2022-07-27T03:05:23.668Z,16.67
2022-07-27T03:07:56.188Z,16.28
2022-07-27T03:10:25.930Z,16.21
2022-07-27T03:12:55.808Z,16.48
2022-07-27T03:15:26.151Z,16.49
2022-07-27T03:17:57.017Z,16.04
2022-07-27T03:20:26.669Z,16.40
2022-07-27T03:22:59.110Z,16.25
2022-07-27T03:25:29.014Z,16.32
2022-07-27T03:28:03.856Z,16.47
2022-07-27T03:30:34.123Z,16.24
2022-07-27T03:33:03.980Z,16.32
2022-07-27T03:35:33.762Z,16.40
2022-07-27T03:38:06.476Z,16.35
2022-07-27T03:40:36.195Z,16.16
2022-07-27T03:43:06.033Z,16.20
2022-07-27T03:45:35.802Z,16.04
2022-07-27T03:48:05.942Z,16.11
2022-07-27T03:50:35.750Z,16.02
2022-07-27T03:53:08.020Z,16.17
2022-07-27T03:55:37.862Z,16.20
2022-07-27T03:58:07.479Z,16.16
2022-07-27T04:00:37.234Z,16.28
2022-07-27T04:03:07.074Z,16.34
2022-07-27T04:05:37.886Z,16.19
2022-07-27T04:08:10.205Z,16.32
2022-07-27T04:10:39.974Z,16.19
2022-07-27T04:13:09.655Z,16.15
2022-07-27T04:15:40.505Z,16.15
2022-07-27T04:18:10.185Z,16.15
2022-07-27T04:20:39.878Z,16.22
2022-07-27T04:23:12.161Z,16.28
2022-07-27T04:25:41.859Z,16.26
2022-07-27T04:28:11.635Z,16.45
2022-07-27T04:30:41.364Z,16.44
2022-07-27T04:33:11.140Z,16.37
2022-07-27T04:35:40.854Z,16.46
2022-07-27T04:38:13.173Z,16.44
2022-07-27T04:40:42.863Z,16.30
2022-07-27T04:43:12.546Z,16.51
2022-07-27T04:45:42.319Z,16.39
2022-07-27T04:48:12.424Z,16.66
2022-07-27T04:50:42.842Z,16.59
2022-07-27T04:53:16.460Z,16.64
2022-07-27T04:55:47.357Z,16.60
2022-07-27T04:58:17.887Z,16.33
2022-07-27T05:00:47.957Z,16.76
2022-07-27T05:03:17.720Z,16.84
2022-07-27T05:05:50.394Z,16.90
2022-07-27T05:08:23.098Z,16.98
2022-07-27T05:10:53.820Z,17.07
2022-07-27T05:13:23.570Z,17.15
2022-07-27T05:15:56.111Z,17.46
2022-07-27T05:18:26.052Z,17.36
2022-07-27T05:20:55.765Z,17.40
2022-07-27T05:23:29.105Z,17.46
2022-07-27T05:25:59.004Z,17.66
2022-07-27T05:28:28.962Z,17.54
2022-07-27T05:30:59.753Z,17.43
2022-07-27T05:33:29.612Z,17.76
2022-07-27T05:35:59.676Z,17.75
2022-07-27T05:38:39.125Z,17.72
2022-07-27T05:41:09.248Z,17.83
2022-07-27T05:43:39.393Z,17.95
2022-07-27T05:46:09.207Z,18.03
2022-07-27T05:48:39.058Z,18.02
2022-07-27T05:51:08.751Z,18.05
2022-07-27T05:53:41.192Z,18.20
2022-07-27T05:56:11.532Z,18.19
2022-07-27T05:58:41.221Z,18.26
2022-07-27T06:01:12.074Z,18.15
2022-07-27T06:03:42.961Z,18.02
2022-07-27T06:06:25.242Z,18.04
2022-07-27T06:08:57.617Z,18.29
2022-07-27T06:11:27.585Z,18.40
2022-07-27T06:14:00.342Z,18.65
2022-07-27T06:16:31.148Z,18.56
2022-07-27T06:19:00.907Z,18.87
2022-07-27T06:21:31.894Z,19.02
2022-07-27T06:24:04.174Z,18.92
2022-07-27T06:26:33.798Z,19.18
2022-07-27T06:29:03.609Z,19.20
2022-07-27T06:31:40.701Z,19.44
2022-07-27T06:34:12.392Z,19.21
2022-07-27T06:36:45.314Z,19.48
2022-07-27T06:39:17.617Z,19.63
2022-07-27T06:41:47.240Z,19.58
2022-07-27T06:44:16.957Z,19.74
2022-07-27T06:46:46.844Z,20.04
2022-07-27T06:49:17.555Z,20.22
2022-07-27T06:51:47.572Z,20.13
2022-07-27T06:54:19.918Z,20.32
2022-07-27T06:56:49.572Z,20.25
2022-07-27T06:59:19.310Z,20.37
2022-07-27T07:01:49.276Z,20.53
2022-07-27T07:04:23.133Z,21.04
2022-07-27T07:06:54.999Z,21.11
2022-07-27T07:09:27.205Z,21.38
2022-07-27T07:11:57.134Z,21.42
2022-07-27T07:14:27.237Z,21.45
2022-07-27T07:16:57.213Z,21.38
2022-07-27T07:19:26.838Z,21.31
2022-07-27T07:21:56.478Z,21.19
2022-07-27T07:24:30.109Z,21.06
2022-07-27T07:27:00.009Z,21.02
2022-07-27T07:29:29.719Z,21.00
2022-07-27T07:31:59.519Z,21.20
2022-07-27T07:34:29.679Z,21.21
2022-07-27T07:36:59.306Z,21.31
2022-07-27T07:39:31.824Z,21.21
2022-07-27T07:42:01.547Z,21.32
2022-07-27T07:44:31.429Z,21.34
2022-07-27T07:47:01.092Z,21.14
2022-07-27T07:49:37.728Z,21.18
2022-07-27T07:52:09.448Z,21.69
2022-07-27T07:54:41.721Z,22.04
2022-07-27T07:57:11.661Z,22.18
2022-07-27T07:59:41.333Z,22.16
2022-07-27T08:02:11.151Z,21.90
2022-07-27T08:04:40.871Z,21.80
2022-07-27T08:07:10.605Z,21.04
2022-07-27T08:09:42.906Z,21.34
2022-07-27T08:12:12.598Z,21.83
2022-07-27T08:14:42.302Z,21.55
2022-07-27T08:17:12.146Z,22.18
2022-07-27T08:19:41.867Z,21.95
2022-07-27T08:22:11.525Z,22.38
2022-07-27T08:24:43.800Z,22.78
2022-07-27T08:27:13.448Z,23.01
2022-07-27T08:29:43.098Z,22.17
2022-07-27T08:32:12.769Z,21.77
2022-07-27T08:34:42.562Z,21.68
2022-07-27T08:37:15.601Z,21.59
2022-07-27T08:42:38.116Z,21.30
2022-07-27T08:45:09.171Z,21.73
2022-07-27T08:47:41.772Z,22.36
2022-07-27T08:50:23.324Z,22.69
2022-07-27T08:53:03.908Z,22.10
2022-07-27T08:55:38.277Z,21.13
2022-07-27T08:58:09.272Z,21.17
2022-07-27T09:00:42.361Z,21.45
2022-07-27T09:03:19.162Z,21.61
2022-07-27T09:05:52.027Z,22.16
2022-07-27T09:08:24.692Z,22.42
2022-07-27T09:10:59.798Z,22.62
2022-07-27T09:13:31.300Z,22.88
2022-07-27T09:16:17.581Z,22.94
2022-07-27T09:18:49.536Z,23.07
2022-07-27T09:21:22.766Z,23.24
2022-07-27T09:23:54.632Z,23.47
2022-07-27T09:26:32.555Z,23.63
2022-07-27T09:29:05.924Z,22.72
2022-07-27T09:31:36.540Z,22.45
2022-07-27T09:34:06.363Z,22.36
2022-07-27T09:36:37.121Z,22.63
2022-07-27T09:39:08.508Z,22.64
2022-07-27T09:41:49.421Z,21.78
2022-07-27T09:44:42.207Z,21.54
2022-07-27T09:47:26.846Z,21.32
2022-07-27T09:49:58.323Z,21.34
2022-07-27T09:52:31.202Z,21.21
2022-07-27T09:55:07.297Z,21.24
2022-07-27T09:57:58.414Z,21.19
2022-07-27T10:00:29.585Z,21.11
2022-07-27T10:02:59.493Z,21.27
2022-07-27T10:05:29.266Z,21.63
2022-07-27T10:07:59.117Z,21.46
2022-07-27T10:10:28.839Z,20.75
2022-07-27T10:13:01.186Z,21.68
2022-07-27T10:15:31.121Z,21.71
2022-07-27T10:18:11.930Z,21.83
2022-07-27T10:20:47.512Z,22.03
2022-07-27T10:23:28.862Z,22.11
2022-07-27T10:26:20.833Z,22.18
2022-07-27T10:28:58.351Z,21.74
2022-07-27T10:31:30.763Z,22.20
2022-07-27T10:34:02.907Z,22.32
2022-07-27T10:36:50.875Z,22.73
2022-07-27T10:39:39.965Z,22.56
2022-07-27T10:42:31.851Z,22.47
2022-07-27T10:45:08.135Z,22.56
2022-07-27T10:47:44.737Z,22.58
2022-07-27T10:50:33.970Z,22.55
2022-07-27T10:53:07.237Z,22.59
2022-07-27T10:55:50.222Z,22.63
2022-07-27T10:58:51.393Z,22.80
2022-07-27T11:01:25.065Z,22.78
2022-07-27T11:03:58.091Z,22.96
2022-07-27T11:06:41.910Z,23.32
2022-07-27T11:10:02.869Z,22.85
2022-07-27T11:12:09.558Z,21.97
2022-07-27T11:14:47.980Z,21.68
2022-07-27T11:17:52.451Z,21.78
2022-07-27T11:20:13.423Z,21.86
2022-07-27T11:25:34.369Z,22.37
2022-07-27T11:28:08.955Z,22.69
2022-07-27T11:30:38.739Z,22.77
2022-07-27T11:33:11.119Z,22.80
2022-07-27T11:35:40.937Z,22.76
2022-07-27T11:38:11.377Z,22.80
2022-07-27T11:41:03.032Z,22.70
2022-07-27T11:43:43.318Z,22.89
2022-07-27T11:46:23.064Z,23.15
2022-07-27T11:49:07.578Z,23.21
2022-07-27T11:51:50.015Z,22.98
2022-07-27T11:54:22.441Z,22.95
2022-07-27T11:56:54.264Z,22.78
2022-07-27T11:59:25.553Z,23.13
2022-07-27T12:01:59.376Z,23.30
2022-07-27T12:04:34.134Z,23.43
2022-07-27T12:07:11.380Z,23.94
2022-07-27T12:09:45.874Z,24.26
2022-07-27T12:12:18.392Z,24.26
2022-07-27T12:14:52.070Z,24.42
2022-07-27T12:17:29.256Z,24.44
2022-07-27T12:20:04.211Z,24.93
2022-07-27T12:22:39.860Z,24.73
2022-07-27T12:25:16.448Z,23.83
2022-07-27T12:27:59.096Z,25.22
2022-07-27T12:30:37.501Z,25.43
2022-07-27T12:33:29.717Z,25.59
2022-07-27T12:36:04.288Z,25.86
2022-07-27T12:38:43.582Z,25.71
2022-07-27T12:41:25.458Z,25.11
2022-07-27T12:44:11.021Z,24.24
2022-07-27T12:46:54.922Z,23.51
2022-07-27T12:49:42.005Z,23.65
2022-07-27T12:52:18.265Z,23.40
2022-07-27T12:54:49.317Z,22.73
2022-07-27T12:57:39.808Z,22.85
2022-07-27T13:00:14.663Z,22.81
2022-07-27T13:02:46.951Z,22.65
2022-07-27T13:05:18.415Z,22.90
2022-07-27T13:07:53.456Z,22.93
2022-07-27T13:10:27.359Z,22.43
2022-07-27T13:12:57.524Z,22.64
2022-07-27T13:15:32.325Z,22.91
2022-07-27T13:18:02.499Z,22.95
2022-07-27T13:20:34.628Z,22.76
2022-07-27T13:23:09.909Z,22.84
2022-07-27T13:25:43.343Z,22.76
2022-07-27T13:28:14.589Z,22.88
2022-07-27T13:30:45.422Z,22.96
2022-07-27T13:33:16.176Z,22.90
2022-07-27T13:35:47.718Z,23.21
2022-07-27T13:38:32.831Z,23.18
2022-07-27T13:41:03.705Z,23.24
2022-07-27T13:43:34.487Z,23.19
2022-07-27T13:46:08.569Z,23.34
2022-07-27T13:48:38.426Z,23.00
2022-07-27T13:51:08.224Z,23.41
2022-07-27T13:53:40.680Z,23.62
2022-07-27T13:56:12.508Z,23.98
2022-07-27T13:58:42.709Z,24.21
2022-07-27T14:01:14.233Z,24.06
2022-07-27T14:03:45.021Z,23.48
2022-07-27T14:06:16.451Z,23.53
2022-07-27T14:08:49.471Z,23.08
2022-07-27T14:11:19.500Z,23.37
2022-07-27T14:13:49.482Z,23.60
2022-07-27T14:16:20.323Z,23.98
2022-07-27T14:18:51.290Z,24.26
2022-07-27T14:21:22.335Z,24.44
2022-07-27T14:23:55.773Z,24.31
2022-07-27T14:26:27.519Z,23.08
2022-07-27T14:28:58.296Z,24.14
2022-07-27T14:31:29.084Z,24.03
2022-07-27T14:33:59.864Z,24.09
2022-07-27T14:36:30.814Z,24.21
2022-07-27T14:39:04.115Z,24.16
2022-07-27T14:41:35.457Z,23.83
2022-07-27T14:44:07.801Z,23.31
2022-07-27T14:46:38.631Z,23.16
2022-07-27T14:49:10.435Z,22.91
2022-07-27T14:51:40.510Z,22.68
2022-07-27T14:54:14.011Z,22.34
2022-07-27T14:56:43.770Z,21.76
2022-07-27T14:59:14.805Z,22.85
2022-07-27T15:01:46.038Z,22.95
2022-07-27T15:04:18.165Z,22.98
2022-07-27T15:06:49.861Z,22.95
2022-07-27T15:09:23.214Z,23.04
2022-07-27T15:11:54.148Z,22.74
2022-07-27T15:14:25.372Z,22.81
2022-07-27T15:16:56.848Z,22.84
2022-07-27T15:19:27.681Z,23.00
2022-07-27T15:21:58.870Z,22.70
2022-07-27T15:24:37.915Z,22.31
2022-07-27T15:27:09.193Z,22.66
2022-07-27T15:29:39.181Z,22.85
2022-07-27T15:32:10.543Z,22.83
2022-07-27T15:34:42.359Z,22.98
2022-07-27T15:37:12.052Z,23.00
2022-07-27T15:39:45.424Z,22.97
2022-07-27T15:42:16.162Z,22.86
2022-07-27T15:44:46.889Z,22.99
2022-07-27T15:47:18.039Z,23.15
2022-07-27T15:49:48.773Z,23.26
2022-07-27T15:52:19.496Z,23.26
2022-07-27T15:54:52.812Z,23.60
2022-07-27T15:57:23.497Z,23.24
2022-07-27T15:59:53.207Z,23.14
2022-07-27T16:02:26.558Z,23.06
2022-07-27T16:04:56.753Z,22.93
2022-07-27T16:07:27.501Z,23.17
2022-07-27T16:10:13.606Z,23.43
2022-07-27T16:12:43.312Z,23.21
2022-07-27T16:15:14.956Z,23.20
2022-07-27T16:17:47.705Z,23.46
2022-07-27T16:20:18.269Z,23.20
2022-07-27T16:22:47.970Z,23.29
2022-07-27T16:25:30.581Z,23.18
2022-07-27T16:28:10.636Z,23.29
2022-07-27T16:30:40.286Z,23.19
2022-07-27T16:33:10.137Z,22.73
2022-07-27T16:35:42.955Z,22.91
2022-07-27T16:38:14.283Z,23.07
2022-07-27T16:40:47.641Z,22.98
2022-07-27T16:43:17.676Z,22.76
2022-07-27T16:45:48.449Z,22.92
2022-07-27T16:48:19.613Z,22.82
2022-07-27T16:50:50.492Z,22.66
2022-07-27T16:53:20.197Z,22.44
2022-07-27T16:55:52.660Z,22.71
2022-07-27T16:58:22.418Z,22.81
2022-07-27T17:00:52.959Z,22.78
2022-07-27T17:03:23.494Z,22.94
2022-07-27T17:05:53.203Z,22.98
2022-07-27T17:08:27.938Z,22.96
2022-07-27T17:11:02.344Z,22.74
2022-07-27T17:13:34.331Z,22.64
2022-07-27T17:16:04.681Z,22.77
2022-07-27T17:18:39.915Z,22.52
2022-07-27T17:21:12.885Z,22.38
2022-07-27T17:23:43.991Z,22.07
2022-07-27T17:26:16.629Z,21.91
2022-07-27T17:28:47.310Z,21.67
2022-07-27T17:31:18.837Z,21.59
2022-07-27T17:33:49.920Z,21.66
2022-07-27T17:36:19.699Z,21.78
2022-07-27T17:38:50.701Z,21.79
2022-07-27T17:41:25.249Z,21.79
2022-07-27T17:43:57.480Z,21.66
2022-07-27T17:46:27.902Z,21.46
2022-07-27T17:48:58.789Z,21.63
2022-07-27T17:51:28.526Z,21.36
2022-07-27T17:53:58.426Z,21.55
2022-07-27T17:56:30.746Z,21.59
2022-07-27T17:59:20.039Z,21.63
2022-07-27T18:01:51.304Z,21.65
2022-07-27T18:04:21.129Z,21.71
2022-07-27T18:06:50.966Z,21.73
2022-07-27T18:09:20.684Z,21.52
2022-07-27T18:11:52.958Z,21.59
2022-07-27T18:14:22.733Z,21.70
2022-07-27T18:16:52.510Z,21.71
2022-07-27T18:19:22.304Z,21.63
2022-07-27T18:21:52.317Z,21.66
2022-07-27T18:24:24.101Z,21.61
2022-07-27T18:26:59.514Z,21.49
2022-07-27T18:29:29.211Z,21.45
2022-07-27T18:31:58.944Z,21.45
2022-07-27T18:34:28.762Z,21.22
2022-07-27T18:36:58.434Z,21.31
2022-07-27T18:39:33.678Z,21.38
2022-07-27T18:42:06.785Z,21.26
2022-07-27T18:44:38.987Z,21.30
2022-07-27T18:47:09.194Z,21.32
2022-07-27T18:49:39.137Z,21.35
2022-07-27T18:52:09.542Z,21.30
2022-07-27T18:54:39.306Z,21.17
2022-07-27T18:57:12.750Z,21.24
2022-07-27T18:59:42.536Z,21.23
2022-07-27T19:02:12.277Z,21.24
2022-07-27T19:04:43.041Z,21.27
2022-07-27T19:07:15.566Z,21.31
2022-07-27T19:09:45.822Z,20.92
2022-07-27T19:12:18.243Z,21.08
2022-07-27T19:14:51.104Z,21.22
2022-07-27T19:17:21.813Z,21.18
2022-07-27T19:19:51.582Z,21.18
2022-07-27T19:22:21.393Z,21.19
2022-07-27T19:24:54.960Z,21.06
2022-07-27T19:27:27.995Z,21.00
2022-07-27T19:29:58.762Z,20.74
2022-07-27T19:32:29.062Z,20.55
2022-07-27T19:34:58.857Z,20.74
2022-07-27T19:37:31.081Z,21.04
2022-07-27T19:40:20.327Z,20.61
2022-07-27T19:42:55.238Z,20.39
2022-07-27T19:45:24.978Z,20.18
2022-07-27T19:47:54.752Z,20.14
2022-07-27T19:50:29.317Z,19.82
2022-07-27T19:52:59.162Z,19.69
2022-07-27T19:55:30.077Z,19.65
2022-07-27T19:58:02.442Z,19.74
2022-07-27T20:00:32.324Z,19.63
2022-07-27T20:03:03.341Z,19.54
2022-07-27T20:05:33.672Z,19.51
2022-07-27T20:08:04.626Z,19.52
2022-07-27T20:10:34.346Z,19.38
2022-07-27T20:13:07.099Z,19.07
2022-07-27T20:15:37.295Z,19.22
2022-07-27T20:18:07.753Z,19.26
2022-07-27T20:20:38.563Z,19.13
2022-07-27T20:23:08.422Z,19.09
2022-07-27T20:25:38.419Z,19.02
2022-07-27T20:28:10.854Z,18.75
2022-07-27T20:30:40.828Z,18.91
2022-07-27T20:33:11.223Z,18.78
2022-07-27T20:35:40.938Z,18.76
2022-07-27T20:38:10.704Z,18.81
2022-07-27T20:40:40.537Z,18.65
2022-07-27T20:43:13.865Z,18.72
2022-07-27T20:45:43.837Z,18.74
2022-07-27T20:48:13.624Z,18.61
2022-07-27T20:50:44.311Z,18.79
2022-07-27T20:53:15.081Z,18.87
2022-07-27T20:55:45.955Z,18.81
2022-07-27T20:58:19.389Z,18.86
2022-07-27T21:00:49.161Z,18.76
2022-07-27T21:03:20.034Z,18.68
2022-07-27T21:05:49.694Z,18.48
2022-07-27T21:08:20.382Z,18.63
2022-07-27T21:10:50.030Z,18.40
2022-07-27T21:13:22.754Z,18.47
2022-07-27T21:15:52.715Z,18.38
2022-07-27T21:18:22.344Z,18.30
2022-07-27T21:20:54.729Z,18.30
2022-07-27T21:23:37.089Z,18.09
2022-07-27T21:26:06.777Z,18.24
2022-07-27T21:28:40.381Z,18.17
2022-07-27T21:31:11.771Z,18.00
2022-07-27T21:33:41.563Z,17.99
2022-07-27T21:36:11.279Z,17.92
2022-07-27T21:38:40.929Z,17.88
2022-07-27T21:41:10.755Z,17.84
2022-07-27T21:43:43.643Z,17.77
2022-07-27T21:46:13.819Z,17.56
2022-07-27T21:48:43.708Z,17.29
2022-07-27T21:51:15.604Z,17.56
2022-07-27T21:53:45.460Z,17.44
2022-07-27T21:56:15.482Z,17.40
2022-07-27T21:58:49.051Z,17.51
2022-07-27T22:01:19.527Z,17.01
2022-07-27T22:03:49.957Z,17.34
2022-07-27T22:06:20.349Z,17.42
2022-07-27T22:08:50.030Z,17.40
2022-07-27T22:11:19.774Z,17.45
2022-07-27T22:13:51.994Z,17.51
2022-07-27T22:16:21.681Z,17.55
2022-07-27T22:18:51.349Z,17.55
2022-07-27T22:21:21.594Z,17.51
2022-07-27T22:23:51.374Z,17.51
2022-07-27T22:26:21.079Z,17.48
2022-07-27T22:28:53.321Z,17.37
2022-07-27T22:31:23.502Z,17.27
2022-07-27T22:33:54.090Z,17.27
2022-07-27T22:36:23.762Z,17.10
2022-07-27T22:38:53.400Z,16.88
2022-07-27T22:41:23.127Z,16.96
2022-07-27T22:43:55.330Z,16.83
2022-07-27T22:46:25.960Z,16.66
2022-07-27T22:48:55.810Z,16.67
2022-07-27T22:51:25.571Z,16.65
2022-07-27T22:54:15.785Z,16.81
2022-07-27T22:56:45.915Z,16.76
2022-07-27T22:59:18.116Z,16.73
2022-07-27T23:01:48.515Z,16.60
2022-07-27T23:04:19.153Z,16.63
2022-07-27T23:06:49.521Z,16.48
2022-07-27T23:09:20.134Z,16.50
2022-07-27T23:11:49.801Z,16.45
2022-07-27T23:14:25.840Z,16.33
2022-07-27T23:16:55.901Z,16.25
2022-07-27T23:19:25.567Z,16.18
2022-07-27T23:22:01.139Z,16.15
2022-07-27T23:24:32.106Z,15.98
2022-07-27T23:27:03.860Z,15.97
2022-07-27T23:29:36.118Z,15.95
2022-07-27T23:32:08.381Z,15.89
2022-07-27T23:34:38.789Z,15.84
2022-07-27T23:37:08.439Z,16.01
2022-07-27T23:39:38.064Z,15.99
2022-07-27T23:42:07.744Z,16.04
2022-07-27T23:44:39.963Z,15.91
2022-07-27T23:47:09.869Z,15.95
2022-07-27T23:49:42.990Z,15.78
2022-07-27T23:52:12.637Z,15.82
2022-07-27T23:54:42.292Z,15.83
2022-07-27T23:57:11.978Z,15.80
2022-07-27T23:59:44.247Z,15.77
